createdAt,value
2019-05-30T00:00:42.780Z,11.28
2019-05-30T00:03:17.114Z,13.55
2019-05-30T00:05:51.413Z,19.17
2019-05-30T00:08:25.602Z,18.90
2019-05-30T00:11:00.624Z,19.52
2019-05-30T00:13:34.549Z,17.87
2019-05-30T00:16:08.259Z,18.32
2019-05-30T00:18:42.086Z,18.67
2019-05-30T00:21:16.275Z,17.57
2019-05-30T00:23:50.670Z,21.27
2019-05-30T00:26:24.298Z,16.42
2019-05-30T00:28:58.615Z,20.20
2019-05-30T00:31:32.300Z,15.70
2019-05-30T00:34:06.539Z,14.45
2019-05-30T00:36:40.761Z,16.62
2019-05-30T00:39:14.998Z,15.15
2019-05-30T00:41:48.751Z,18.42
2019-05-30T00:44:22.995Z,17.92
2019-05-30T00:46:58.053Z,16.42
2019-05-30T00:49:32.651Z,14.87
2019-05-30T00:52:06.994Z,17.07
2019-05-30T00:54:41.215Z,12.75
2019-05-30T00:57:14.994Z,15.13
2019-05-30T00:59:48.719Z,15.05
2019-05-30T01:02:23.740Z,17.35
2019-05-30T01:04:58.854Z,11.48
2019-05-30T01:07:33.170Z,20.02
2019-05-30T01:10:07.451Z,18.90
2019-05-30T01:12:41.518Z,14.98
2019-05-30T01:15:15.835Z,13.85
2019-05-30T01:17:49.668Z,14.43
2019-05-30T01:20:23.756Z,14.05
2019-05-30T01:22:59.096Z,17.52
2019-05-30T01:25:33.751Z,17.87
2019-05-30T01:28:07.861Z,15.90
2019-05-30T01:30:41.550Z,15.28
2019-05-30T01:33:14.852Z,14.13
2019-05-30T01:35:48.199Z,13.22
2019-05-30T01:38:22.074Z,12.50
2019-05-30T01:40:56.236Z,13.25
2019-05-30T01:43:30.192Z,11.73
2019-05-30T01:46:04.384Z,13.90
2019-05-30T01:48:38.593Z,9.63
2019-05-30T01:51:12.843Z,12.45
2019-05-30T01:53:46.748Z,11.70
2019-05-30T01:56:20.940Z,13.28
2019-05-30T01:58:54.778Z,16.82
2019-05-30T02:01:29.002Z,13.68
2019-05-30T02:04:03.302Z,13.22
2019-05-30T02:06:38.285Z,15.05
2019-05-30T02:09:12.144Z,9.90
2019-05-30T02:11:46.313Z,10.60
2019-05-30T02:14:20.553Z,11.08
2019-05-30T02:16:54.644Z,11.88
2019-05-30T02:19:28.483Z,11.28
2019-05-30T02:22:02.304Z,8.18
2019-05-30T02:24:36.020Z,14.53
2019-05-30T02:27:10.408Z,12.40
2019-05-30T02:29:44.242Z,13.75
2019-05-30T02:32:17.277Z,10.93
2019-05-30T02:34:51.557Z,12.43
2019-05-30T02:37:25.355Z,10.03
2019-05-30T02:40:02.892Z,10.60
2019-05-30T02:42:35.390Z,11.25
2019-05-30T02:45:11.949Z,10.45
2019-05-30T02:47:45.036Z,13.68
2019-05-30T02:50:19.130Z,12.43
2019-05-30T02:52:53.025Z,8.30
2019-05-30T02:55:26.803Z,16.75
2019-05-30T02:58:01.348Z,9.05
2019-05-30T03:00:38.935Z,12.70
2019-05-30T03:03:14.598Z,10.78
2019-05-30T03:05:48.967Z,9.90
2019-05-30T03:08:22.770Z,10.53
2019-05-30T03:10:57.082Z,11.73
2019-05-30T03:13:30.386Z,15.40
2019-05-30T03:16:05.025Z,8.65
2019-05-30T03:18:39.573Z,9.55
2019-05-30T03:21:15.595Z,12.13
2019-05-30T03:23:49.832Z,11.28
2019-05-30T03:26:24.007Z,13.65
2019-05-30T03:28:57.826Z,9.58
2019-05-30T03:31:35.053Z,15.95
2019-05-30T03:34:18.031Z,11.63
2019-05-30T03:36:45.605Z,12.37
2019-05-30T03:39:19.509Z,13.35
2019-05-30T03:41:53.738Z,14.80
2019-05-30T03:44:28.043Z,7.75
2019-05-30T03:47:06.780Z,12.95
2019-05-30T03:49:46.021Z,16.07
2019-05-30T03:52:21.863Z,10.60
2019-05-30T03:54:55.756Z,13.32
2019-05-30T03:57:34.260Z,12.20
2019-05-30T04:00:16.024Z,11.00
2019-05-30T04:03:00.973Z,12.63
2019-05-30T04:05:41.742Z,11.33
2019-05-30T04:08:19.696Z,10.40
2019-05-30T04:10:58.442Z,10.50
2019-05-30T04:13:51.991Z,9.63
2019-05-30T04:16:26.212Z,13.30
2019-05-30T04:19:00.644Z,11.38
2019-05-30T04:21:34.282Z,13.93
2019-05-30T04:24:09.788Z,15.72
2019-05-30T04:26:44.710Z,11.43
2019-05-30T04:29:19.116Z,16.77
2019-05-30T04:31:53.366Z,11.45
2019-05-30T04:34:27.560Z,11.48
2019-05-30T04:37:02.442Z,13.83
2019-05-30T04:39:36.137Z,11.45
2019-05-30T04:42:11.340Z,11.05
2019-05-30T04:44:45.903Z,11.45
2019-05-30T04:47:20.792Z,11.48
2019-05-30T04:49:55.032Z,11.12
2019-05-30T04:52:29.273Z,12.33
2019-05-30T04:55:03.047Z,10.90
2019-05-30T04:57:36.753Z,9.75
2019-05-30T05:00:12.984Z,18.25
2019-05-30T05:02:46.416Z,6.42
2019-05-30T05:05:26.550Z,8.90
2019-05-30T05:07:56.501Z,9.08
2019-05-30T05:10:30.339Z,9.48
2019-05-30T05:13:04.632Z,14.53
2019-05-30T05:15:38.851Z,9.85
2019-05-30T05:18:12.914Z,8.93
2019-05-30T05:20:45.300Z,8.43
2019-05-30T05:23:19.398Z,8.25
2019-05-30T05:26:00.772Z,9.88
2019-05-30T05:28:27.214Z,8.38
2019-05-30T05:30:59.595Z,15.88
2019-05-30T05:33:32.645Z,15.28
2019-05-30T05:36:05.542Z,9.35
2019-05-30T05:38:37.633Z,6.08
2019-05-30T05:41:10.537Z,6.08
2019-05-30T05:43:42.523Z,8.28
2019-05-30T05:46:16.325Z,5.83
2019-05-30T05:48:49.441Z,6.35
2019-05-30T05:51:22.753Z,8.13
2019-05-30T05:53:55.485Z,5.55
2019-05-30T05:56:29.158Z,9.48
2019-05-30T05:59:02.278Z,10.20
2019-05-30T06:01:35.983Z,7.30
2019-05-30T06:04:13.238Z,9.28
2019-05-30T06:06:44.516Z,16.50
2019-05-30T06:09:18.717Z,18.92
2019-05-30T06:11:52.560Z,25.75
2019-05-30T06:14:28.037Z,8.28
2019-05-30T06:17:02.697Z,7.92
2019-05-30T06:19:45.939Z,7.70
2019-05-30T06:22:12.777Z,8.45
2019-05-30T06:24:47.596Z,4.53
2019-05-30T06:27:21.942Z,9.95
2019-05-30T06:29:55.251Z,10.78
2019-05-30T06:32:28.946Z,13.18
2019-05-30T06:35:03.144Z,12.68
2019-05-30T06:37:36.870Z,11.25
2019-05-30T06:40:11.400Z,10.40
2019-05-30T06:42:45.147Z,4.65
2019-05-30T06:45:20.862Z,7.35
2019-05-30T06:47:55.167Z,5.22
2019-05-30T06:50:29.249Z,5.20
2019-05-30T06:53:02.270Z,14.07
2019-05-30T06:55:35.488Z,6.78
2019-05-30T06:58:08.523Z,5.50
2019-05-30T07:00:43.772Z,9.78
2019-05-30T07:03:17.533Z,10.55
2019-05-30T07:05:51.523Z,4.35
2019-05-30T07:08:26.480Z,7.75
2019-05-30T07:11:00.215Z,6.22
2019-05-30T07:13:33.743Z,3.45
2019-05-30T07:16:08.318Z,6.72
2019-05-30T07:18:42.114Z,6.75
2019-05-30T07:21:15.412Z,5.00
2019-05-30T07:23:48.817Z,6.85
2019-05-30T07:26:23.733Z,4.50
2019-05-30T07:29:00.524Z,6.55
2019-05-30T07:31:34.264Z,12.07
2019-05-30T07:34:07.989Z,5.17
2019-05-30T07:36:42.147Z,9.68
2019-05-30T07:39:16.027Z,15.08
2019-05-30T07:42:05.334Z,4.85
2019-05-30T07:44:25.307Z,8.13
2019-05-30T07:46:59.503Z,8.35
2019-05-30T07:49:34.632Z,11.43
2019-05-30T07:52:09.074Z,6.92
2019-05-30T07:54:43.226Z,4.67
2019-05-30T07:57:17.610Z,9.65
2019-05-30T07:59:51.952Z,4.28
2019-05-30T08:02:27.406Z,4.62
2019-05-30T08:05:01.504Z,6.08
2019-05-30T08:07:35.176Z,5.60
2019-05-30T08:10:09.030Z,5.20
2019-05-30T08:12:43.203Z,6.40
2019-05-30T08:15:17.244Z,5.40
2019-05-30T08:17:51.449Z,5.62
2019-05-30T08:20:24.460Z,4.67
2019-05-30T08:22:58.751Z,3.58
2019-05-30T08:25:32.553Z,2.70
2019-05-30T08:28:06.373Z,9.15
2019-05-30T08:30:38.842Z,3.95
2019-05-30T08:33:13.078Z,7.17
2019-05-30T08:35:49.790Z,20.85
2019-05-30T08:38:22.595Z,5.00
2019-05-30T08:40:55.807Z,4.17
2019-05-30T08:43:29.647Z,7.97
2019-05-30T08:46:03.863Z,13.48
2019-05-30T08:48:38.212Z,9.73
2019-05-30T08:51:12.660Z,7.40
2019-05-30T08:53:46.988Z,4.00
2019-05-30T08:56:21.227Z,2.92
2019-05-30T08:58:55.420Z,6.60
2019-05-30T09:01:29.205Z,7.30
2019-05-30T09:04:02.611Z,6.75
2019-05-30T09:06:35.921Z,7.58
2019-05-30T09:09:10.239Z,4.40
2019-05-30T09:11:44.579Z,7.40
2019-05-30T09:14:18.766Z,4.10
2019-05-30T09:16:53.021Z,7.87
2019-05-30T09:19:26.788Z,4.17
2019-05-30T09:22:00.597Z,3.95
2019-05-30T09:24:34.729Z,9.30
2019-05-30T09:27:08.235Z,6.35
2019-05-30T09:29:42.909Z,6.17
2019-05-30T09:32:17.260Z,2.67
2019-05-30T09:34:51.572Z,4.55
2019-05-30T09:37:25.816Z,11.20
2019-05-30T09:40:00.031Z,4.92
2019-05-30T09:42:34.096Z,3.42
2019-05-30T09:45:09.939Z,5.58
2019-05-30T09:47:45.167Z,3.67
2019-05-30T09:50:18.594Z,8.53
2019-05-30T09:52:52.869Z,2.65
2019-05-30T09:55:26.126Z,5.95
2019-05-30T09:57:58.973Z,4.60
2019-05-30T10:00:34.357Z,4.33
2019-05-30T10:03:09.211Z,3.58
2019-05-30T10:05:44.791Z,7.97
2019-05-30T10:08:18.541Z,5.47
2019-05-30T10:10:53.519Z,4.10
2019-05-30T10:13:27.898Z,10.58
2019-05-30T10:16:02.242Z,7.10
2019-05-30T10:18:36.756Z,12.78
2019-05-30T10:21:10.031Z,3.85
2019-05-30T10:23:45.715Z,4.78
2019-05-30T10:26:19.144Z,6.30
2019-05-30T10:28:53.324Z,6.58
2019-05-30T10:31:27.708Z,5.50
2019-05-30T10:34:01.821Z,3.15
2019-05-30T10:36:43.829Z,8.55
2019-05-30T10:39:10.901Z,16.73
2019-05-30T10:41:44.605Z,7.90
2019-05-30T10:44:20.355Z,4.08
2019-05-30T10:46:54.709Z,3.45
2019-05-30T10:49:34.670Z,2.90
2019-05-30T10:52:04.643Z,5.87
2019-05-30T10:54:39.785Z,4.47
2019-05-30T10:57:13.993Z,7.80
2019-05-30T10:59:48.902Z,5.10
2019-05-30T11:02:24.169Z,6.28
2019-05-30T11:04:57.943Z,8.10
2019-05-30T11:08:00.568Z,2.83
2019-05-30T11:10:35.674Z,6.12
2019-05-30T11:13:10.415Z,4.75
2019-05-30T11:15:44.526Z,3.45
2019-05-30T11:18:18.983Z,4.75
2019-05-30T11:20:54.069Z,3.77
2019-05-30T11:23:28.363Z,34.25
2019-05-30T11:26:02.701Z,7.55
2019-05-30T11:28:36.471Z,7.33
2019-05-30T11:31:10.314Z,4.97
2019-05-30T11:33:44.523Z,3.25
2019-05-30T11:36:18.729Z,4.78
2019-05-30T11:38:53.670Z,5.22
2019-05-30T11:41:27.810Z,36.98
2019-05-30T11:44:04.127Z,9.43
2019-05-30T11:46:37.477Z,4.62
2019-05-30T11:49:11.549Z,5.58
2019-05-30T11:51:45.408Z,2.80
2019-05-30T11:54:19.567Z,3.85
2019-05-30T11:56:54.021Z,5.53
2019-05-30T11:59:26.807Z,4.00
2019-05-30T12:02:00.533Z,4.62
2019-05-30T12:04:34.228Z,6.10
2019-05-30T12:07:07.522Z,3.30
2019-05-30T12:09:40.853Z,4.22
2019-05-30T12:12:14.760Z,7.90
2019-05-30T12:14:47.174Z,6.67
2019-05-30T12:17:19.229Z,3.35
2019-05-30T12:19:51.431Z,5.10
2019-05-30T12:22:25.344Z,2.62
2019-05-30T12:24:59.788Z,4.47
2019-05-30T12:27:34.068Z,3.37
2019-05-30T12:30:07.081Z,6.10
2019-05-30T12:32:39.950Z,6.45
2019-05-30T12:35:14.753Z,4.17
2019-05-30T12:37:55.045Z,5.35
2019-05-30T12:40:23.225Z,5.80
2019-05-30T12:42:58.934Z,8.45
2019-05-30T12:45:30.663Z,4.15
2019-05-30T12:48:04.633Z,4.70
2019-05-30T12:50:38.214Z,3.40
2019-05-30T12:53:12.419Z,3.52
2019-05-30T12:55:46.054Z,3.12
2019-05-30T12:58:19.948Z,5.30
2019-05-30T13:00:54.658Z,3.85
2019-05-30T13:03:28.027Z,5.62
2019-05-30T13:06:03.400Z,4.35
2019-05-30T13:08:37.958Z,3.92
2019-05-30T13:11:11.664Z,4.67
2019-05-30T13:13:45.537Z,4.28
2019-05-30T13:16:19.788Z,5.17
2019-05-30T13:18:53.564Z,5.95
2019-05-30T13:21:27.683Z,4.30
2019-05-30T13:24:01.881Z,6.03
2019-05-30T13:26:34.258Z,4.10
2019-05-30T13:29:06.744Z,3.25
2019-05-30T13:31:40.140Z,8.28
2019-05-30T13:34:12.521Z,5.22
2019-05-30T13:36:44.456Z,7.22
2019-05-30T13:39:17.007Z,8.75
2019-05-30T13:41:50.201Z,6.00
2019-05-30T13:44:23.869Z,3.75
2019-05-30T13:46:58.408Z,4.92
2019-05-30T13:49:32.723Z,3.37
2019-05-30T13:52:07.275Z,4.83
2019-05-30T13:54:41.584Z,4.30
2019-05-30T13:57:15.338Z,6.05
2019-05-30T13:59:49.097Z,4.90
2019-05-30T14:02:22.980Z,4.03
2019-05-30T14:04:57.167Z,7.85
2019-05-30T14:07:30.968Z,5.15
2019-05-30T14:10:04.692Z,3.95
2019-05-30T14:12:37.972Z,4.20
2019-05-30T14:15:13.917Z,3.42
2019-05-30T14:17:48.012Z,3.75
2019-05-30T14:20:23.278Z,2.37
2019-05-30T14:22:57.088Z,4.08
2019-05-30T14:25:30.793Z,3.05
2019-05-30T14:28:05.588Z,4.30
2019-05-30T14:30:40.147Z,3.52
2019-05-30T14:33:14.499Z,3.62
2019-05-30T14:35:48.224Z,4.83
2019-05-30T14:38:22.385Z,5.47
2019-05-30T14:40:55.885Z,4.72
2019-05-30T14:43:30.228Z,3.90
2019-05-30T14:46:04.346Z,2.50
2019-05-30T14:48:37.266Z,5.42
2019-05-30T14:51:12.847Z,3.75
2019-05-30T14:53:47.030Z,5.35
2019-05-30T14:56:20.351Z,3.10
2019-05-30T14:58:54.117Z,2.22
2019-05-30T15:01:27.456Z,3.00
2019-05-30T15:04:01.709Z,4.60
2019-05-30T15:06:36.592Z,3.37
2019-05-30T15:09:17.723Z,2.33
2019-05-30T15:11:46.788Z,2.83
2019-05-30T15:14:21.741Z,4.72
2019-05-30T15:16:55.466Z,4.30
2019-05-30T15:19:48.020Z,2.08
2019-05-30T15:22:22.310Z,3.95
2019-05-30T15:24:56.014Z,2.20
2019-05-30T15:27:30.287Z,3.70
2019-05-30T15:30:04.397Z,1.92
2019-05-30T15:32:38.659Z,3.30
2019-05-30T15:35:12.828Z,5.55
2019-05-30T15:37:47.154Z,3.10
2019-05-30T15:40:22.612Z,3.37
2019-05-30T15:42:56.692Z,3.83
2019-05-30T15:45:31.033Z,4.22
2019-05-30T15:48:04.122Z,3.20
2019-05-30T15:50:38.228Z,3.75
2019-05-30T15:53:13.116Z,4.67
2019-05-30T15:55:47.414Z,1.98
2019-05-30T15:58:21.628Z,5.95
2019-05-30T16:00:55.414Z,2.45
2019-05-30T16:03:30.486Z,4.17
2019-05-30T16:06:03.687Z,2.08
2019-05-30T16:08:37.963Z,3.37
2019-05-30T16:11:12.741Z,5.17
2019-05-30T16:13:46.717Z,5.47
2019-05-30T16:16:33.783Z,3.80
2019-05-30T16:18:56.227Z,3.67
2019-05-30T16:21:30.128Z,3.77
2019-05-30T16:24:04.995Z,5.33
2019-05-30T16:26:38.422Z,3.83
2019-05-30T16:29:11.941Z,3.62
2019-05-30T16:31:46.214Z,4.25
2019-05-30T16:34:20.312Z,4.60
2019-05-30T16:36:54.258Z,4.33
2019-05-30T16:39:28.351Z,4.80
2019-05-30T16:42:02.163Z,3.27
2019-05-30T16:44:35.964Z,3.47
2019-05-30T16:47:09.678Z,3.25
2019-05-30T16:49:43.477Z,3.70
2019-05-30T16:52:19.126Z,5.37
2019-05-30T16:54:56.681Z,6.12
2019-05-30T16:57:28.672Z,3.98
2019-05-30T17:00:02.406Z,6.20
2019-05-30T17:02:36.633Z,4.47
2019-05-30T17:05:10.236Z,2.87
2019-05-30T17:07:44.310Z,4.33
2019-05-30T17:10:27.685Z,4.45
2019-05-30T17:12:55.321Z,6.00
2019-05-30T17:15:29.608Z,3.72
2019-05-30T17:18:04.148Z,4.65
2019-05-30T17:20:39.293Z,4.70
2019-05-30T17:23:13.237Z,5.60
2019-05-30T17:25:49.364Z,5.58
2019-05-30T17:28:24.352Z,4.05
2019-05-30T17:30:57.676Z,5.95
2019-05-30T17:33:31.557Z,5.17
2019-05-30T17:36:05.827Z,6.72
2019-05-30T17:38:40.041Z,4.85
2019-05-30T17:41:13.430Z,4.55
2019-05-30T17:43:47.243Z,3.77
2019-05-30T17:46:21.438Z,6.45
2019-05-30T17:48:55.224Z,3.87
2019-05-30T17:51:30.035Z,4.15
2019-05-30T17:54:04.326Z,5.40
2019-05-30T17:56:38.226Z,6.62
2019-05-30T17:59:11.571Z,5.05
2019-05-30T18:01:44.524Z,4.83
2019-05-30T18:04:16.944Z,4.75
2019-05-30T18:06:49.006Z,7.33
2019-05-30T18:09:22.863Z,4.50
2019-05-30T18:11:56.208Z,4.62
2019-05-30T18:14:29.252Z,2.67
2019-05-30T18:17:02.269Z,4.00
2019-05-30T18:19:36.513Z,6.65
2019-05-30T18:22:10.362Z,10.15
2019-05-30T18:24:44.118Z,5.92
2019-05-30T18:27:17.853Z,4.80
2019-05-30T18:29:52.099Z,7.72
2019-05-30T18:32:26.294Z,4.30
2019-05-30T18:34:59.606Z,4.15
2019-05-30T18:37:33.922Z,7.72
2019-05-30T18:40:07.914Z,5.12
2019-05-30T18:42:41.366Z,3.65
2019-05-30T18:45:14.605Z,23.80
2019-05-30T18:47:48.388Z,48.52
2019-05-30T18:50:20.974Z,47.25
2019-05-30T18:52:53.483Z,69.40
2019-05-30T18:55:26.554Z,58.92
2019-05-30T18:57:59.607Z,61.30
2019-05-30T19:00:33.212Z,32.48
2019-05-30T19:03:08.044Z,15.43
2019-05-30T19:05:41.560Z,9.70
2019-05-30T19:08:14.500Z,8.68
2019-05-30T19:10:47.493Z,10.60
2019-05-30T19:13:20.451Z,10.13
2019-05-30T19:15:54.985Z,12.23
2019-05-30T19:18:27.866Z,5.47
2019-05-30T19:21:01.233Z,5.95
2019-05-30T19:23:37.891Z,8.60
2019-05-30T19:26:11.277Z,7.95
2019-05-30T19:28:44.541Z,6.67
2019-05-30T19:31:19.221Z,6.67
2019-05-30T19:33:52.655Z,7.28
2019-05-30T19:36:26.832Z,5.65
2019-05-30T19:38:59.423Z,6.03
2019-05-30T19:41:48.530Z,7.45
2019-05-30T19:44:07.039Z,8.55
2019-05-30T19:46:40.363Z,17.20
2019-05-30T19:49:12.891Z,16.62
2019-05-30T19:51:45.409Z,14.20
2019-05-30T19:54:19.056Z,17.67
2019-05-30T19:56:52.469Z,17.55
2019-05-30T19:59:25.821Z,17.67
2019-05-30T20:01:58.319Z,16.15
2019-05-30T20:04:30.305Z,15.38
2019-05-30T20:07:03.331Z,16.02
2019-05-30T20:09:35.292Z,14.55
2019-05-30T20:12:09.199Z,14.68
2019-05-30T20:14:42.568Z,17.27
2019-05-30T20:17:15.619Z,17.75
2019-05-30T20:19:50.004Z,15.45
2019-05-30T20:22:22.015Z,15.15
2019-05-30T20:24:54.057Z,11.35
2019-05-30T20:27:27.658Z,15.38
2019-05-30T20:30:01.053Z,14.35
2019-05-30T20:32:34.412Z,10.48
2019-05-30T20:35:07.470Z,13.85
2019-05-30T20:37:40.688Z,15.28
2019-05-30T20:40:15.907Z,17.02
2019-05-30T20:42:48.782Z,21.33
2019-05-30T20:45:21.872Z,19.35
2019-05-30T20:47:54.707Z,16.55
2019-05-30T20:50:27.828Z,16.00
2019-05-30T20:53:02.223Z,11.75
2019-05-30T20:55:36.407Z,14.78
2019-05-30T20:58:09.169Z,7.42
2019-05-30T21:00:43.852Z,10.05
2019-05-30T21:03:18.446Z,10.48
2019-05-30T21:05:52.460Z,11.00
2019-05-30T21:08:27.671Z,9.60
2019-05-30T21:11:02.735Z,8.08
2019-05-30T21:13:38.197Z,8.25
2019-05-30T21:16:14.769Z,8.33
2019-05-30T21:18:50.952Z,9.78
2019-05-30T21:21:25.118Z,8.75
2019-05-30T21:23:59.217Z,7.95
2019-05-30T21:26:32.992Z,7.85
2019-05-30T21:29:06.811Z,12.75
2019-05-30T21:31:41.492Z,8.20
2019-05-30T21:34:15.727Z,10.35
2019-05-30T21:36:49.415Z,14.07
2019-05-30T21:39:23.619Z,12.85
2019-05-30T21:41:57.830Z,10.53
2019-05-30T21:44:32.066Z,17.57
2019-05-30T21:47:06.374Z,15.55
2019-05-30T21:49:40.910Z,11.95
2019-05-30T21:52:15.332Z,9.10
2019-05-30T21:54:50.152Z,9.68
2019-05-30T21:57:24.698Z,12.07
2019-05-30T21:59:59.008Z,13.00
2019-05-30T22:02:33.316Z,11.18
2019-05-30T22:05:06.801Z,9.50
2019-05-30T22:07:40.951Z,16.15
2019-05-30T22:10:14.703Z,11.65
2019-05-30T22:12:49.460Z,16.10
2019-05-30T22:15:24.280Z,23.15
2019-05-30T22:17:57.664Z,16.75
2019-05-30T22:20:31.369Z,15.95
2019-05-30T22:23:05.595Z,20.25
2019-05-30T22:25:39.808Z,17.40
2019-05-30T22:28:12.698Z,16.97
2019-05-30T22:30:46.418Z,15.40
2019-05-30T22:33:20.137Z,14.63
2019-05-30T22:35:53.887Z,13.72
2019-05-30T22:38:28.250Z,14.53
2019-05-30T22:41:02.029Z,15.58
2019-05-30T22:43:35.847Z,15.45
2019-05-30T22:46:09.521Z,17.23
2019-05-30T22:48:44.401Z,11.40
2019-05-30T22:51:18.831Z,13.38
2019-05-30T22:53:53.230Z,11.20
2019-05-30T22:56:27.634Z,13.90
2019-05-30T22:59:01.874Z,15.28
2019-05-30T23:01:35.532Z,13.38
2019-05-30T23:04:09.776Z,13.70
2019-05-30T23:06:43.563Z,14.58
2019-05-30T23:09:16.902Z,15.32
2019-05-30T23:11:51.664Z,13.80
2019-05-30T23:14:25.814Z,18.95
2019-05-30T23:16:59.618Z,20.90
2019-05-30T23:19:33.240Z,24.75
2019-05-30T23:22:06.520Z,22.10
2019-05-30T23:24:40.538Z,24.07
2019-05-30T23:27:14.421Z,19.35
2019-05-30T23:29:48.015Z,18.20
2019-05-30T23:32:22.233Z,20.25
2019-05-30T23:34:56.487Z,16.85
2019-05-30T23:37:30.333Z,21.48
2019-05-30T23:40:03.667Z,17.87
2019-05-30T23:42:37.840Z,19.20
2019-05-30T23:45:12.515Z,16.65
2019-05-30T23:47:46.755Z,17.07
2019-05-30T23:50:21.136Z,18.67
2019-05-30T23:52:56.258Z,15.65
2019-05-30T23:55:30.077Z,19.82
2019-05-30T23:58:04.211Z,16.27
